Time;durP1;ratioP1;P1;durP2;ratioP2;P2;SDS_P1;SDS_P2;PMS_P1;PMS_P2;Temp;Humidity;BMP_temperature;BMP_pressure;BME280_temperature;BME280_humidity;BME280_pressure;Samples;Min_cycle;Max_cycle;Signal;HPM_P1;HPM_P2
2024/04/07 00:02:34;;;;;;;29.30;20.40;;;;;;;9.01;81.05;100105.10;218278;1254;139841;-69
2024/04/07 00:07:36;;;;;;;31.40;20.10;;;;;;;9.04;81.51;100104.27;217960;1254;140915;-70
2024/04/07 00:12:38;;;;;;;33.30;23.60;;;;;;;9.05;81.43;100112.70;218040;1254;139832;-70
2024/04/07 00:17:41;;;;;;;44.50;23.60;;;;;;;9.06;81.73;100116.23;217974;1254;139995;-67
2024/04/07 00:22:43;;;;;;;28.80;19.00;;;;;;;9.05;81.82;100116.91;217804;1254;140572;-69
2024/04/07 00:27:45;;;;;;;29.20;20.00;;;;;;;9.00;81.76;100115.38;217952;1260;139839;-68
2024/04/07 00:32:47;;;;;;;25.70;17.40;;;;;;;8.93;81.80;100113.54;217705;1254;140830;-71
2024/04/07 00:37:49;;;;;;;24.30;19.60;;;;;;;8.85;81.82;100112.25;217804;1254;141195;-70
2024/04/07 00:42:51;;;;;;;22.10;18.40;;;;;;;8.82;82.22;100103.20;218614;1254;139727;-70
2024/04/07 00:47:53;;;;;;;28.50;19.20;;;;;;;8.75;81.90;100106.88;218382;1257;140952;-70
2024/04/07 00:52:56;;;;;;;22.90;15.70;;;;;;;8.70;81.79;100106.12;219273;1258;140213;-70
2024/04/07 00:57:59;;;;;;;28.90;18.40;;;;;;;8.63;82.33;100107.83;218997;1257;139392;-69
2024/04/07 01:03:01;;;;;;;25.80;17.70;;;;;;;8.62;82.51;100120.02;217949;1256;140665;-68
2024/04/07 01:08:05;;;;;;;25.20;16.20;;;;;;;8.65;82.66;100121.52;217752;1257;139524;-68
2024/04/07 01:13:09;;;;;;;22.40;16.00;;;;;;;8.64;82.53;100133.34;217897;1254;139198;-67
2024/04/07 01:18:12;;;;;;;22.30;16.30;;;;;;;8.58;82.64;100134.18;219132;1257;139883;-69
2024/04/07 01:23:17;;;;;;;22.10;15.70;;;;;;;8.60;82.99;100131.91;218167;1258;142326;-69
2024/04/07 01:28:19;;;;;;;18.40;15.00;;;;;;;8.57;82.97;100136.52;217790;1254;141231;-69
2024/04/07 01:33:21;;;;;;;15.60;11.60;;;;;;;8.46;82.85;100128.81;217784;1257;140898;-68
2024/04/07 01:38:25;;;;;;;17.00;14.80;;;;;;;8.38;83.50;100122.96;217705;1257;139367;-69
2024/04/07 01:43:28;;;;;;;21.20;13.80;;;;;;;8.36;83.92;100117.70;217813;1260;140738;-68
2024/04/07 01:48:30;;;;;;;17.20;12.50;;;;;;;8.39;83.88;100115.14;218138;1257;139928;-69
2024/04/07 01:53:33;;;;;;;19.80;13.60;;;;;;;8.39;84.27;100099.13;217940;1256;140688;-71
2024/04/07 01:58:37;;;;;;;11.60;10.00;;;;;;;8.41;84.55;100092.86;217994;1254;140102;-69
2024/04/07 02:03:39;;;;;;;16.00;10.00;;;;;;;8.46;84.57;100090.40;217840;1259;141332;-69
2024/04/07 02:08:42;;;;;;;15.80;11.20;;;;;;;8.54;84.93;100083.23;217837;1256;140164;-69
2024/04/07 02:13:44;;;;;;;13.30;9.30;;;;;;;8.65;85.37;100088.40;217891;1259;139959;-70
2024/04/07 02:18:49;;;;;;;11.10;9.10;;;;;;;8.74;85.52;100094.94;218894;1254;139798;-69
2024/04/07 02:23:53;;;;;;;12.00;8.60;;;;;;;8.86;85.52;100090.20;217875;1254;140344;-69
2024/04/07 02:28:55;;;;;;;9.40;8.10;;;;;;;8.94;85.53;100085.84;218248;1256;139477;-70
2024/04/07 02:33:58;;;;;;;12.40;8.40;;;;;;;9.02;85.44;100085.78;218119;1259;141317;-69
2024/04/07 02:39:02;;;;;;;14.30;9.50;;;;;;;9.08;85.72;100074.54;217660;1259;139327;-70
2024/04/07 02:44:04;;;;;;;12.40;9.50;;;;;;;9.14;85.65;100067.86;217989;1259;141340;-69
2024/04/07 02:49:06;;;;;;;11.80;8.80;;;;;;;9.17;85.90;100063.96;217957;1257;140876;-70
2024/04/07 02:54:09;;;;;;;9.30;8.40;;;;;;;9.23;85.66;100071.66;218158;1257;140675;-69
2024/04/07 02:59:12;;;;;;;11.90;8.90;;;;;;;9.29;85.76;100073.79;219288;1256;232386;-70
2024/04/07 03:04:14;;;;;;;12.00;9.40;;;;;;;9.39;85.88;100070.68;218149;1254;140050;-69
2024/04/07 03:09:16;;;;;;;12.00;9.00;;;;;;;9.46;85.71;100074.05;218458;1254;141086;-71
2024/04/07 03:14:19;;;;;;;19.20;11.60;;;;;;;9.50;85.53;100074.20;218114;1254;140080;-69
2024/04/07 03:19:21;;;;;;;45.20;22.60;;;;;;;9.50;85.29;100084.59;218053;1254;140333;-69
2024/04/07 03:24:23;;;;;;;47.50;23.70;;;;;;;9.48;84.98;100083.14;217751;1254;140182;-68
2024/04/07 03:29:25;;;;;;;43.60;20.70;;;;;;;9.44;84.75;100084.10;217662;1254;140207;-69
2024/04/07 03:34:27;;;;;;;24.50;16.80;;;;;;;9.39;84.34;100092.49;218467;1259;139569;-69
2024/04/07 03:39:29;;;;;;;20.90;11.30;;;;;;;9.31;84.32;100096.65;217900;1254;140483;-69
2024/04/07 03:44:31;;;;;;;18.90;12.50;;;;;;;9.21;84.33;100096.60;217935;1259;140609;-68
2024/04/07 03:49:33;;;;;;;15.70;10.80;;;;;;;9.15;84.74;100090.29;217849;1258;140053;-69
2024/04/07 03:54:36;;;;;;;14.60;10.60;;;;;;;9.11;84.90;100090.44;218691;1259;139555;-68
2024/04/07 03:59:38;;;;;;;23.30;13.80;;;;;;;9.07;85.03;100089.89;217693;1259;141612;-67
2024/04/07 04:04:41;;;;;;;20.80;14.70;;;;;;;9.06;85.10;100091.98;217761;1259;140308;-68
2024/04/07 04:09:43;;;;;;;14.70;11.10;;;;;;;9.07;85.51;100090.91;218220;1258;140715;-70
2024/04/07 04:14:45;;;;;;;22.30;13.40;;;;;;;9.09;85.51;100095.02;217934;1260;140885;-69
2024/04/07 04:19:47;;;;;;;18.00;12.50;;;;;;;9.16;85.75;100097.61;217486;1260;140386;-69
2024/04/07 04:24:49;;;;;;;13.30;9.20;;;;;;;9.21;85.71;100097.34;220607;1255;140332;-68
2024/04/07 04:29:51;;;;;;;13.50;9.90;;;;;;;9.28;85.70;100106.66;217880;1259;151650;-69
2024/04/07 04:34:54;;;;;;;10.60;9.10;;;;;;;9.38;85.68;100104.24;219988;1257;141311;-70
2024/04/07 04:39:55;;;;;;;12.20;8.50;;;;;;;9.50;85.57;100097.62;217770;1259;139966;-68
2024/04/07 04:44:58;;;;;;;12.40;9.20;;;;;;;9.65;85.66;100095.65;218278;1256;142484;-69
2024/04/07 04:50:00;;;;;;;13.20;11.10;;;;;;;9.83;85.81;100091.08;218553;1258;140973;-69
2024/04/07 04:55:03;;;;;;;16.10;9.90;;;;;;;10.04;85.81;100095.15;218126;1257;142017;-69
2024/04/07 05:00:05;;;;;;;12.60;9.90;;;;;;;10.25;85.91;100093.38;218015;1258;140759;-69
2024/04/07 05:05:09;;;;;;;14.20;9.40;;;;;;;10.50;86.10;100090.77;217573;1260;141092;-69
2024/04/07 05:10:11;;;;;;;13.20;10.60;;;;;;;10.78;86.38;100084.27;218351;1257;143296;-69
2024/04/07 05:15:13;;;;;;;17.20;10.70;;;;;;;11.08;86.23;100083.84;217722;1259;142363;-69
2024/04/07 05:20:15;;;;;;;13.70;9.40;;;;;;;11.38;86.27;100080.63;218259;1260;140711;-68
2024/04/07 05:25:19;;;;;;;14.60;9.80;;;;;;;11.68;85.97;100076.62;218210;1260;140897;-69
2024/04/07 05:30:21;;;;;;;19.30;10.40;;;;;;;11.98;85.74;100081.23;217839;1260;140059;-70
2024/04/07 05:35:23;;;;;;;18.80;10.30;;;;;;;12.27;85.52;100071.35;217812;1257;141106;-70
2024/04/07 05:40:26;;;;;;;12.90;8.50;;;;;;;12.55;85.13;100074.08;217851;1257;140131;-69
2024/04/07 05:45:28;;;;;;;10.30;8.10;;;;;;;12.81;84.66;100073.28;217871;1257;140901;-70
2024/04/07 05:50:32;;;;;;;9.60;7.60;;;;;;;13.04;84.49;100075.91;217867;1259;140484;-70
2024/04/07 05:55:35;;;;;;;11.70;7.60;;;;;;;13.25;83.94;100077.66;217906;1260;140378;-69
2024/04/07 06:00:37;;;;;;;13.10;7.00;;;;;;;13.48;83.77;100085.47;217798;1257;140191;-68
2024/04/07 06:05:39;;;;;;;11.00;6.30;;;;;;;13.77;83.16;100081.06;217927;1259;141376;-69
2024/04/07 06:10:41;;;;;;;13.90;8.40;;;;;;;14.06;82.71;100081.65;217950;1257;139629;-70
2024/04/07 06:15:43;;;;;;;11.00;7.00;;;;;;;14.33;82.26;100083.07;218311;1260;140733;-69
2024/04/07 06:20:45;;;;;;;6.80;4.70;;;;;;;14.58;81.87;100077.31;217727;1257;140864;-68
2024/04/07 06:25:48;;;;;;;11.10;7.30;;;;;;;14.79;81.16;100083.52;218015;1257;140196;-70
2024/04/07 06:30:51;;;;;;;8.30;5.80;;;;;;;15.07;81.11;100084.22;217950;1260;350799;-70
2024/04/07 06:35:53;;;;;;;10.50;6.90;;;;;;;15.42;80.49;100081.86;218136;1260;140523;-69
2024/04/07 06:40:55;;;;;;;10.10;6.60;;;;;;;15.76;79.92;100077.26;218335;1260;140875;-68
2024/04/07 06:45:57;;;;;;;11.70;7.30;;;;;;;16.18;79.57;100078.54;217746;1260;140138;-69
2024/04/07 06:50:59;;;;;;;8.30;5.90;;;;;;;16.55;78.74;100086.24;218039;1258;140506;-67
2024/04/07 06:56:01;;;;;;;8.90;5.60;;;;;;;16.95;77.89;100084.84;217563;1256;139872;-70
2024/04/07 07:01:06;;;;;;;9.30;6.50;;;;;;;17.22;77.13;100090.51;217806;1258;140143;-69
2024/04/07 07:06:11;;;;;;;7.10;5.40;;;;;;;17.59;76.53;100096.58;218438;1257;140997;-69
2024/04/07 07:11:14;;;;;;;9.40;6.60;;;;;;;18.11;75.66;100103.64;217770;1259;141173;-69
2024/04/07 07:16:15;;;;;;;11.40;6.60;;;;;;;18.54;75.14;100110.84;217920;1260;140664;-69
2024/04/07 07:21:17;;;;;;;8.30;4.60;;;;;;;19.02;74.66;100111.98;217769;1260;140529;-69
2024/04/07 07:26:20;;;;;;;10.20;5.80;;;;;;;19.30;73.44;100113.60;217836;1260;140101;-69
2024/04/07 07:31:22;;;;;;;8.20;5.70;;;;;;;19.79;73.22;100115.66;217740;1257;140324;-70
2024/04/07 07:36:24;;;;;;;7.10;5.80;;;;;;;20.14;72.65;100115.23;217658;1257;138739;-70
2024/04/07 07:41:26;;;;;;;9.80;5.60;;;;;;;20.49;72.23;100113.73;218212;1257;140495;-70
2024/04/07 07:46:28;;;;;;;6.10;5.50;;;;;;;21.31;72.41;100116.16;217734;1260;143158;-70
2024/04/07 07:51:30;;;;;;;6.80;5.60;;;;;;;22.13;71.21;100121.88;217858;1259;139229;-71
2024/04/07 07:56:34;;;;;;;4.80;4.40;;;;;;;22.48;69.99;100125.40;217673;1257;139326;-70
2024/04/07 08:01:37;;;;;;;7.80;4.80;;;;;;;22.68;67.34;100126.84;217744;1257;140129;-70
2024/04/07 08:06:39;;;;;;;5.30;4.80;;;;;;;22.51;66.60;100131.77;218284;1259;139087;-70
2024/04/07 08:11:40;;;;;;;5.50;4.20;;;;;;;22.71;66.12;100134.95;219597;1256;139935;-71
2024/04/07 08:16:42;;;;;;;4.40;3.90;;;;;;;22.79;64.85;100134.02;217712;1256;139457;-71
2024/04/07 08:21:44;;;;;;;4.90;3.80;;;;;;;23.03;64.56;100132.45;217921;1260;139148;-70
2024/04/07 08:26:45;;;;;;;5.60;3.80;;;;;;;23.18;63.78;100126.85;218405;1257;139536;-71
2024/04/07 08:31:47;;;;;;;6.20;3.40;;;;;;;23.07;62.61;100123.30;217753;1257;139266;-71
2024/04/07 08:36:51;;;;;;;3.90;2.70;;;;;;;23.08;62.72;100118.96;217800;1260;139669;-73
2024/04/07 08:41:54;;;;;;;3.80;3.10;;;;;;;23.03;61.62;100110.76;217780;1260;139616;-71
2024/04/07 08:46:57;;;;;;;4.10;3.00;;;;;;;23.05;61.67;100106.91;218240;1259;139184;-72
2024/04/07 08:52:01;;;;;;;5.90;3.90;;;;;;;23.28;61.31;100103.58;218067;1257;139779;-71
2024/04/07 08:57:13;;;;;;;4.00;3.20;;;;;;;23.45;60.90;100097.45;217976;1257;140249;-69
2024/04/07 09:02:17;;;;;;;5.00;2.90;;;;;;;23.56;59.77;100095.64;217665;1260;139282;-71
2024/04/07 09:07:19;;;;;;;4.10;2.70;;;;;;;23.70;59.89;100094.70;218248;1257;139697;-72
2024/04/07 09:12:21;;;;;;;3.40;2.70;;;;;;;23.75;59.02;100092.98;217709;1255;139767;-71
2024/04/07 09:17:22;;;;;;;2.00;1.90;;;;;;;23.93;59.29;100091.40;217817;1257;139227;-71
2024/04/07 09:22:25;;;;;;;2.70;2.20;;;;;;;24.21;58.87;100091.52;218022;1258;139920;-72
2024/04/07 09:27:27;;;;;;;4.30;2.70;;;;;;;24.39;58.08;100084.83;218257;1254;140236;-72
2024/04/07 09:32:28;;;;;;;3.20;2.80;;;;;;;24.50;57.71;100079.61;217946;1258;139744;-72
2024/04/07 09:37:29;;;;;;;3.70;2.70;;;;;;;24.57;57.43;100078.73;218012;1257;140870;-73
2024/04/07 09:42:34;;;;;;;2.10;1.80;;;;;;;24.72;57.24;100067.94;218222;1254;139781;-70
2024/04/07 09:47:38;;;;;;;3.30;2.50;;;;;;;24.83;56.70;100062.95;218639;1259;139158;-72
2024/04/07 09:52:50;;;;;;;4.30;2.70;;;;;;;24.83;56.50;100062.02;218043;1254;139125;-72
2024/04/07 09:57:51;;;;;;;3.00;2.80;;;;;;;24.96;56.07;100057.38;217834;1258;159413;-72
2024/04/07 10:02:54;;;;;;;3.70;2.00;;;;;;;24.94;55.87;100052.84;217946;1255;139104;-69
2024/04/07 10:07:58;;;;;;;2.50;2.20;;;;;;;24.92;55.55;100041.14;218448;1257;140925;-72
2024/04/07 11:26:06;;;;;;;1.60;1.50;;;;;;;26.35;50.04;100022.52;213617;1301;656957;-72
2024/04/07 11:31:09;;;;;;;1.60;1.50;;;;;;;26.38;49.79;100019.51;215816;1270;138820;-71
2024/04/07 11:36:10;;;;;;;3.10;1.70;;;;;;;26.45;50.08;100018.44;215841;1273;253298;-73
2024/04/07 11:41:12;;;;;;;2.40;2.10;;;;;;;26.59;49.75;100014.11;216521;1267;138466;-72
2024/04/07 11:46:14;;;;;;;2.60;2.00;;;;;;;26.49;49.44;100011.49;216388;1271;138209;-74
2024/04/07 11:51:16;;;;;;;2.20;2.00;;;;;;;26.47;49.53;100004.23;219367;1255;140303;-72
2024/04/07 11:56:18;;;;;;;2.50;2.00;;;;;;;26.45;49.09;99999.71;218297;1257;138071;-74
2024/04/07 12:01:20;;;;;;;3.50;2.30;;;;;;;26.32;49.14;99998.10;217873;1260;138552;-73
2024/04/07 12:06:23;;;;;;;2.70;2.00;;;;;;;26.45;49.45;99998.85;218970;1256;138388;-74
2024/04/07 12:11:24;;;;;;;5.40;2.80;;;;;;;26.73;49.17;99994.31;220538;1258;139158;-75
2024/04/07 12:16:26;;;;;;;2.50;2.30;;;;;;;26.89;48.70;99987.35;217493;1257;139289;-72
2024/04/07 12:21:29;;;;;;;3.20;2.20;;;;;;;26.78;48.31;99981.15;218151;1256;138440;-72
2024/04/07 12:26:30;;;;;;;2.50;2.30;;;;;;;26.57;48.21;99980.45;217568;1256;138386;-74
2024/04/07 12:31:33;;;;;;;2.80;2.00;;;;;;;26.46;48.34;99966.71;217438;1254;138559;-74
2024/04/07 12:36:35;;;;;;;3.80;2.90;;;;;;;26.38;48.02;99957.33;218288;1256;139493;-72
2024/04/07 12:41:37;;;;;;;2.50;2.20;;;;;;;26.41;48.34;99953.09;217714;1256;139063;-73
2024/04/07 12:46:39;;;;;;;3.20;2.10;;;;;;;26.47;48.28;99944.16;217606;1259;138256;-71
2024/04/07 12:51:41;;;;;;;3.00;1.90;;;;;;;26.50;48.39;99947.80;217800;1257;138733;-72
2024/04/07 12:56:44;;;;;;;4.40;2.40;;;;;;;26.47;48.41;99946.90;218351;1256;138196;-72
2024/04/07 13:01:46;;;;;;;3.10;2.70;;;;;;;26.49;48.61;99943.02;218010;1258;138539;-71
2024/04/07 13:06:48;;;;;;;2.90;2.10;;;;;;;26.57;48.63;99932.44;217440;1256;140490;-73
2024/04/07 13:11:49;;;;;;;4.80;2.10;;;;;;;26.60;48.62;99926.50;217724;1254;138970;-70
2024/04/07 13:16:51;;;;;;;2.40;2.20;;;;;;;26.65;48.49;99921.52;217712;1256;139321;-74
2024/04/07 13:21:53;;;;;;;2.80;2.00;;;;;;;26.58;48.14;99917.05;217772;1255;139085;-72
2024/04/07 13:26:55;;;;;;;2.60;2.10;;;;;;;26.51;47.99;99924.23;218273;1256;138313;-73
2024/04/07 13:31:57;;;;;;;7.50;3.00;;;;;;;26.52;48.18;99917.94;217824;1260;138812;-70
2024/04/07 13:37:00;;;;;;;5.80;2.60;;;;;;;26.62;48.32;99922.95;217660;1256;139493;-72
2024/04/07 13:42:02;;;;;;;3.00;2.10;;;;;;;26.67;47.99;99923.61;217718;1256;138807;-71
2024/04/07 13:47:04;;;;;;;1.70;1.60;;;;;;;26.62;47.56;99920.55;217730;1260;141166;-73
2024/04/07 13:52:07;;;;;;;2.20;2.10;;;;;;;26.56;47.29;99922.92;217909;1256;139734;-73
2024/04/07 13:57:09;;;;;;;3.00;2.50;;;;;;;26.49;47.25;99922.79;217757;1260;139966;-71
2024/04/07 14:02:11;;;;;;;2.50;2.30;;;;;;;26.49;47.34;99920.77;217536;1254;139110;-74
2024/04/07 14:07:13;;;;;;;2.30;1.50;;;;;;;26.50;46.79;99918.35;217636;1256;138589;-72
2024/04/07 14:12:15;;;;;;;1.90;1.80;;;;;;;26.47;46.82;99921.23;217649;1256;138919;-73
2024/04/07 14:17:16;;;;;;;5.10;2.20;;;;;;;26.46;46.93;99921.27;217556;1256;159755;-72
2024/04/07 14:22:18;;;;;;;6.30;1.70;;;;;;;26.46;46.60;99923.10;217703;1257;139007;-71
2024/04/07 14:27:20;;;;;;;2.00;1.90;;;;;;;26.44;46.75;99918.74;217949;1260;139521;-74
2024/04/07 14:32:22;;;;;;;3.90;2.10;;;;;;;26.45;46.78;99915.91;217794;1256;138863;-73
2024/04/07 14:37:24;;;;;;;2.60;2.40;;;;;;;26.36;46.63;99906.12;217779;1260;138625;-73
2024/04/07 14:42:26;;;;;;;2.50;2.30;;;;;;;26.36;46.83;99904.25;217827;1259;139463;-72
2024/04/07 14:47:28;;;;;;;2.60;2.10;;;;;;;26.31;46.51;99903.42;218055;1256;138987;-73
2024/04/07 14:52:30;;;;;;;2.70;2.40;;;;;;;26.22;46.57;99894.59;217816;1256;138530;-74
2024/04/07 14:57:32;;;;;;;2.30;2.10;;;;;;;26.18;46.81;99892.34;217868;1260;138059;-74
2024/04/07 15:02:33;;;;;;;2.30;2.10;;;;;;;26.11;46.52;99892.45;217705;1256;138754;-73
2024/04/07 15:07:36;;;;;;;4.70;2.40;;;;;;;25.99;46.55;99885.55;217686;1256;140217;-72
2024/04/07 15:12:40;;;;;;;2.50;2.00;;;;;;;25.90;46.55;99880.04;217677;1256;139461;-72
2024/04/07 15:17:42;;;;;;;2.40;1.90;;;;;;;25.81;46.15;99875.76;217824;1256;139181;-72
2024/04/07 15:22:45;;;;;;;4.30;1.80;;;;;;;25.75;45.99;99867.23;217745;1259;138876;-71
2024/04/07 15:27:48;;;;;;;2.30;2.10;;;;;;;25.68;46.19;99873.06;217713;1256;139419;-72
2024/04/07 15:32:50;;;;;;;2.30;2.10;;;;;;;25.63;46.48;99867.30;217631;1255;138823;-72
2024/04/07 15:37:52;;;;;;;2.00;1.90;;;;;;;25.56;46.52;99866.33;218363;1256;139161;-73
2024/04/07 15:42:54;;;;;;;3.00;1.90;;;;;;;25.40;46.42;99865.25;217955;1256;140127;-74
2024/04/07 15:47:55;;;;;;;2.30;1.90;;;;;;;25.26;46.35;99861.80;220260;1256;138195;-73
2024/04/07 15:52:58;;;;;;;2.20;2.00;;;;;;;25.20;46.70;99857.50;217740;1256;139685;-75
2024/04/07 15:58:00;;;;;;;2.20;2.10;;;;;;;25.13;46.63;99856.07;218178;1255;140320;-72
2024/04/07 16:03:03;;;;;;;2.10;2.00;;;;;;;25.10;46.65;99852.20;218262;1259;139197;-75
2024/04/07 16:08:05;;;;;;;2.50;2.20;;;;;;;25.03;46.63;99856.45;217643;1258;138818;-73
2024/04/07 16:13:06;;;;;;;2.60;2.40;;;;;;;24.93;46.77;99849.71;218127;1256;139250;-73
2024/04/07 16:18:08;;;;;;;3.80;2.60;;;;;;;24.74;46.58;99842.73;217796;1258;138774;-73
2024/04/07 16:23:09;;;;;;;2.30;2.00;;;;;;;24.53;46.95;99839.53;218564;1259;140364;-74
2024/04/07 16:28:10;;;;;;;3.30;2.90;;;;;;;24.31;47.07;99830.07;217844;1259;140560;-72
2024/04/07 16:33:11;;;;;;;5.60;2.70;;;;;;;24.08;47.50;99830.52;217970;1258;138610;-71
2024/04/07 16:38:12;;;;;;;3.20;2.30;;;;;;;23.85;47.88;99824.77;217498;1254;139416;-74
2024/04/07 16:43:14;;;;;;;7.80;2.70;;;;;;;23.59;48.06;99819.98;217786;1254;139130;-72
2024/04/07 16:48:17;;;;;;;5.80;2.30;;;;;;;23.36;48.72;99816.75;217622;1256;142179;-75
2024/04/07 16:53:18;;;;;;;4.30;2.80;;;;;;;23.20;49.19;99810.40;217566;1256;139725;-73
2024/04/07 16:58:19;;;;;;;2.50;2.30;;;;;;;23.01;49.79;99802.89;217692;1256;139043;-72
2024/04/07 17:03:22;;;;;;;3.30;2.80;;;;;;;22.80;50.04;99805.05;217848;1256;138584;-72
2024/04/07 17:08:23;;;;;;;5.90;3.00;;;;;;;22.63;50.39;99808.59;217784;1257;138553;-72
2024/04/07 17:13:33;;;;;;;4.00;3.60;;;;;;;22.43;50.95;99811.55;217701;1254;139949;-73
2024/04/07 17:18:35;;;;;;;3.30;3.00;;;;;;;22.15;51.62;99812.29;217613;1256;138754;-72
2024/04/07 17:23:36;;;;;;;5.30;3.80;;;;;;;21.84;52.58;99814.61;217431;1256;139520;-75
2024/04/07 17:28:37;;;;;;;9.10;4.30;;;;;;;21.61;53.13;99817.01;217558;1254;140741;-72
2024/04/07 17:33:39;;;;;;;5.20;3.60;;;;;;;21.42;53.68;99830.42;217832;1254;139821;-72
2024/04/07 17:38:41;;;;;;;5.20;3.60;;;;;;;21.22;54.01;99837.95;217837;1259;139762;-72
2024/04/07 17:43:43;;;;;;;3.20;2.90;;;;;;;21.08;54.46;99848.02;217801;1254;138842;-71
2024/04/07 17:48:45;;;;;;;6.20;3.30;;;;;;;20.89;54.64;99847.41;217680;1255;139470;-72
2024/04/07 17:53:48;;;;;;;4.50;3.30;;;;;;;20.74;55.03;99859.79;219385;1259;139579;-71
2024/04/07 17:58:50;;;;;;;4.40;3.40;;;;;;;20.62;55.77;99861.20;219171;1257;139159;-72
2024/04/07 18:03:52;;;;;;;4.90;4.40;;;;;;;20.48;56.07;99862.79;217961;1254;139036;-71
2024/04/07 18:08:53;;;;;;;3.40;3.10;;;;;;;20.38;56.58;99866.25;218111;1258;221044;-71
2024/04/07 18:13:56;;;;;;;5.50;4.90;;;;;;;20.32;57.14;99868.55;217734;1258;138797;-71
2024/04/07 18:18:58;;;;;;;4.40;3.60;;;;;;;20.30;57.51;99874.43;217704;1256;139265;-72
2024/04/07 18:24:00;;;;;;;3.90;3.60;;;;;;;20.21;57.85;99876.84;217714;1254;139495;-72
2024/04/07 18:29:05;;;;;;;3.60;3.30;;;;;;;20.10;58.26;99882.00;217720;1254;139675;-72
2024/04/07 18:34:09;;;;;;;5.20;3.70;;;;;;;20.02;58.61;99882.70;217665;1254;139094;-71
2024/04/07 18:39:10;;;;;;;4.70;3.50;;;;;;;19.96;59.00;99879.17;218025;1254;141114;-71
2024/04/07 18:44:16;;;;;;;7.40;3.40;;;;;;;19.90;59.13;99884.16;217747;1260;138777;-71
2024/04/07 18:49:18;;;;;;;9.30;4.10;;;;;;;19.85;59.40;99884.05;217864;1254;138791;-71
2024/04/07 18:54:20;;;;;;;4.00;3.60;;;;;;;19.77;59.61;99880.46;218436;1256;139241;-71
2024/04/07 18:59:23;;;;;;;5.20;4.10;;;;;;;19.71;59.58;99879.73;217769;1254;139468;-72
2024/04/07 19:04:25;;;;;;;5.50;3.70;;;;;;;19.62;59.94;99885.81;217848;1254;209673;-71
2024/04/07 19:09:28;;;;;;;5.80;3.90;;;;;;;19.52;60.09;99887.56;217864;1260;139668;-71
2024/04/07 19:14:47;;;;;;;5.00;4.30;;;;;;;19.43;60.21;99889.77;218859;1256;138338;-71
2024/04/07 19:19:50;;;;;;;5.50;3.60;;;;;;;19.32;60.51;99889.23;217556;1254;139815;-73
2024/04/07 19:24:52;;;;;;;4.80;3.70;;;;;;;19.22;60.68;99886.93;218055;1254;139342;-73
2024/04/07 19:29:55;;;;;;;4.50;3.90;;;;;;;19.07;60.95;99884.29;218838;1256;139575;-72
2024/04/07 19:34:57;;;;;;;3.80;3.40;;;;;;;18.95;61.38;99885.92;220499;1254;139112;-71
2024/04/07 19:40:01;;;;;;;5.40;4.00;;;;;;;18.86;61.62;99882.30;217905;1257;139372;-71
2024/04/07 19:45:05;;;;;;;5.50;4.10;;;;;;;18.74;61.77;99880.52;217795;1258;139976;-71
2024/04/07 19:50:08;;;;;;;5.40;4.80;;;;;;;18.64;62.05;99885.69;217452;1256;139170;-74
2024/04/07 19:55:09;;;;;;;4.60;3.70;;;;;;;18.54;62.39;99889.42;218218;1256;139879;-73
2024/04/07 20:00:13;;;;;;;5.70;4.30;;;;;;;18.45;62.61;99894.73;217781;1254;139646;-72
2024/04/07 20:05:15;;;;;;;4.30;3.20;;;;;;;18.39;62.69;99897.36;217790;1256;141510;-73
2024/04/07 20:10:17;;;;;;;8.30;3.70;;;;;;;18.34;62.87;99898.13;217934;1260;139925;-72
2024/04/07 20:15:19;;;;;;;4.10;3.70;;;;;;;18.26;63.13;99894.13;217797;1257;140183;-73
2024/04/07 20:20:21;;;;;;;6.70;3.60;;;;;;;18.17;63.23;99890.73;217637;1257;140838;-72
2024/04/07 20:25:24;;;;;;;4.80;4.30;;;;;;;18.08;63.31;99892.73;217526;1260;141098;-73
2024/04/07 20:30:25;;;;;;;5.20;4.40;;;;;;;17.99;63.69;99892.65;217538;1261;140710;-73
2024/04/07 20:35:28;;;;;;;5.50;4.10;;;;;;;17.88;63.91;99877.23;217642;1254;139341;-73
2024/04/07 20:40:30;;;;;;;3.60;3.40;;;;;;;17.81;64.11;99876.19;218188;1254;139809;-73
2024/04/07 20:45:33;;;;;;;3.90;3.20;;;;;;;17.72;64.21;99869.73;218012;1259;140032;-73
2024/04/07 20:50:37;;;;;;;4.30;3.60;;;;;;;17.63;64.51;99866.30;217906;1254;140691;-73
2024/04/07 20:55:39;;;;;;;4.90;3.30;;;;;;;17.54;64.87;99860.89;218111;1257;140636;-73
2024/04/07 21:00:42;;;;;;;6.40;3.70;;;;;;;17.46;64.99;99859.14;217678;1254;140567;-73
2024/04/07 21:05:45;;;;;;;4.80;4.10;;;;;;;17.35;65.21;99851.66;217978;1259;140060;-72
2024/04/07 21:10:48;;;;;;;4.70;4.10;;;;;;;17.30;65.41;99848.66;217925;1260;139345;-72
2024/04/07 21:15:50;;;;;;;6.50;3.80;;;;;;;17.27;65.63;99848.67;217956;1254;140545;-73
2024/04/07 21:20:52;;;;;;;4.80;4.40;;;;;;;17.24;65.86;99847.88;220571;1254;139462;-70
2024/04/07 21:25:54;;;;;;;5.70;3.30;;;;;;;17.23;66.10;99843.41;217578;1257;139573;-70
2024/04/07 21:30:56;;;;;;;4.20;3.30;;;;;;;17.24;66.30;99839.69;219926;1257;142098;-71
2024/04/07 21:35:59;;;;;;;8.10;4.80;;;;;;;17.18;66.17;99846.17;218477;1259;140632;-70
2024/04/07 21:41:01;;;;;;;4.20;3.80;;;;;;;17.13;66.37;99846.73;218412;1257;139518;-71
2024/04/07 21:46:04;;;;;;;5.70;4.40;;;;;;;17.06;66.43;99848.70;217969;1257;140274;-71
2024/04/07 21:51:05;;;;;;;4.20;3.30;;;;;;;17.04;66.60;99849.84;217628;1257;142400;-71
2024/04/07 21:56:08;;;;;;;4.10;3.40;;;;;;;17.03;66.70;99849.36;217600;1257;139651;-70
2024/04/07 22:01:12;;;;;;;5.70;3.80;;;;;;;16.99;66.71;99842.16;217626;1257;140030;-70
2024/04/07 22:06:15;;;;;;;4.70;3.50;;;;;;;16.94;66.90;99839.09;218285;1257;140629;-71
2024/04/07 22:11:18;;;;;;;3.90;3.60;;;;;;;16.90;67.06;99835.44;217682;1257;139825;-70
2024/04/07 22:16:20;;;;;;;3.80;3.20;;;;;;;16.86;67.15;99835.72;217414;1259;140090;-70
2024/04/07 22:21:22;;;;;;;3.50;3.30;;;;;;;16.83;67.25;99839.23;217683;1254;140032;-71
2024/04/07 22:26:24;;;;;;;5.20;4.20;;;;;;;16.78;67.25;99834.13;217820;1254;140552;-71
2024/04/07 22:31:26;;;;;;;4.30;3.20;;;;;;;16.72;67.34;99828.06;217677;1258;142619;-71
2024/04/07 22:36:29;;;;;;;4.40;3.80;;;;;;;16.64;67.42;99832.95;217585;1254;139553;-71
2024/04/07 22:41:31;;;;;;;5.10;3.40;;;;;;;16.52;67.27;99834.30;218036;1258;139384;-71
2024/04/07 22:46:34;;;;;;;6.20;4.30;;;;;;;16.30;67.50;99827.39;217583;1256;140831;-70
2024/04/07 22:51:36;;;;;;;5.20;4.70;;;;;;;16.16;67.92;99829.45;217866;1256;142894;-71
2024/04/07 22:56:38;;;;;;;4.80;4.30;;;;;;;16.04;68.00;99831.80;217888;1260;141253;-69
2024/04/07 23:01:40;;;;;;;5.00;4.40;;;;;;;15.94;68.51;99838.02;217730;1260;139571;-73
2024/04/07 23:06:42;;;;;;;4.90;4.50;;;;;;;15.83;68.87;99833.45;217608;1258;140203;-71
2024/04/07 23:11:44;;;;;;;4.60;3.70;;;;;;;15.67;68.98;99829.92;218471;1260;139935;-70
2024/04/07 23:16:48;;;;;;;5.10;4.20;;;;;;;15.39;69.00;99827.18;218391;1255;140352;-70
2024/04/07 23:21:50;;;;;;;4.40;4.10;;;;;;;15.17;69.57;99814.60;218054;1254;139566;-70
2024/04/07 23:26:53;;;;;;;5.40;4.20;;;;;;;15.07;70.11;99813.84;218719;1260;139186;-71
2024/04/07 23:31:55;;;;;;;4.90;4.30;;;;;;;15.00;70.29;99810.59;217674;1258;141266;-70
2024/04/07 23:36:57;;;;;;;12.30;4.50;;;;;;;14.93;70.61;99806.77;219107;1254;450836;-70
2024/04/07 23:41:59;;;;;;;11.70;4.60;;;;;;;14.80;70.69;99801.91;217781;1259;140221;-70
2024/04/07 23:47:01;;;;;;;4.30;3.90;;;;;;;14.67;71.14;99798.25;217805;1254;140195;-69
2024/04/07 23:52:04;;;;;;;5.00;4.30;;;;;;;14.63;71.49;99791.42;217599;1254;139794;-71
2024/04/07 23:57:06;;;;;;;6.10;4.50;;;;;;;14.58;71.68;99788.33;218403;1254;140121;-70
